sensor_id;sensor_type;location;lat;lon;timestamp;temperature;humidity
7562;DHT22;3822;48.784;9.174;2023-12-20T05:38:22;5.50;98.60
7562;DHT22;3822;48.784;9.174;2023-12-20T05:53:12;6.90;99.50
7562;DHT22;3822;48.784;9.174;2023-12-20T06:07:20;7.80;99.90
7562;DHT22;3822;48.784;9.174;2023-12-20T06:11:30;5.40;99.40
7562;DHT22;3822;48.784;9.174;2023-12-20T06:14:36;7.80;99.90
7562;DHT22;3822;48.784;9.174;2023-12-20T06:32:17;8.00;99.90
7562;DHT22;3822;48.784;9.174;2023-12-20T06:35:42;7.90;99.90
7562;DHT22;3822;48.784;9.174;2023-12-20T06:42:01;7.90;99.90
7562;DHT22;3822;48.784;9.174;2023-12-20T06:46:03;7.90;99.90
7562;DHT22;3822;48.784;9.174;2023-12-20T06:49:40;8.10;99.90
7562;DHT22;3822;48.784;9.174;2023-12-20T06:53:20;8.00;99.90
7562;DHT22;3822;48.784;9.174;2023-12-20T07:01:04;6.70;99.90
7562;DHT22;3822;48.784;9.174;2023-12-20T07:08:27;7.00;99.90
7562;DHT22;3822;48.784;9.174;2023-12-20T07:11:52;10.30;99.90
7562;DHT22;3822;48.784;9.174;2023-12-20T07:15:25;7.00;99.90
7562;DHT22;3822;48.784;9.174;2023-12-20T07:18:46;8.20;99.90
7562;DHT22;3822;48.784;9.174;2023-12-20T07:22:27;8.40;99.90
7562;DHT22;3822;48.784;9.174;2023-12-20T07:29:46;7.10;99.90
7562;DHT22;3822;48.784;9.174;2023-12-20T07:33:37;8.30;99.90
7562;DHT22;3822;48.784;9.174;2023-12-20T07:36:30;8.30;99.90
7562;DHT22;3822;48.784;9.174;2023-12-20T07:48:48;8.30;99.90
7562;DHT22;3822;48.784;9.174;2023-12-20T07:51:16;8.20;99.90
7562;DHT22;3822;48.784;9.174;2023-12-20T07:54:07;8.10;99.90
7562;DHT22;3822;48.784;9.174;2023-12-20T07:59:38;7.30;99.50
7562;DHT22;3822;48.784;9.174;2023-12-20T08:02:21;8.10;99.90
7562;DHT22;3822;48.784;9.174;2023-12-20T08:05:30;8.30;99.60
7562;DHT22;3822;48.784;9.174;2023-12-20T08:08:27;8.10;99.10
7562;DHT22;3822;48.784;9.174;2023-12-20T08:11:16;8.10;99.40
7562;DHT22;3822;48.784;9.174;2023-12-20T08:14:07;8.10;99.00
7562;DHT22;3822;48.784;9.174;2023-12-20T08:16:39;5.60;97.90
7562;DHT22;3822;48.784;9.174;2023-12-20T08:19:33;7.90;98.90
7562;DHT22;3822;48.784;9.174;2023-12-20T08:26:07;8.00;98.60
7562;DHT22;3822;48.784;9.174;2023-12-20T08:29:50;7.20;98.20
7562;DHT22;3822;48.784;9.174;2023-12-20T08:32:31;7.00;98.00
7562;DHT22;3822;48.784;9.174;2023-12-20T08:35:09;7.80;98.30
7562;DHT22;3822;48.784;9.174;2023-12-20T08:38:20;5.80;97.60
7562;DHT22;3822;48.784;9.174;2023-12-20T08:41:06;7.90;98.50
7562;DHT22;3822;48.784;9.174;2023-12-20T08:43:52;7.80;98.30
7562;DHT22;3822;48.784;9.174;2023-12-20T08:46:35;9.30;98.80
7562;DHT22;3822;48.784;9.174;2023-12-20T08:49:31;7.60;97.70
7562;DHT22;3822;48.784;9.174;2023-12-20T08:52:37;7.50;97.90
7562;DHT22;3822;48.784;9.174;2023-12-20T08:55:25;8.00;97.90
7562;DHT22;3822;48.784;9.174;2023-12-20T08:58:01;10.50;98.50
7562;DHT22;3822;48.784;9.174;2023-12-20T09:00:28;10.30;98.90
7562;DHT22;3822;48.784;9.174;2023-12-20T09:03:25;6.90;97.30
7562;DHT22;3822;48.784;9.174;2023-12-20T09:06:29;7.70;97.50
7562;DHT22;3822;48.784;9.174;2023-12-20T09:09:27;7.70;97.70
7562;DHT22;3822;48.784;9.174;2023-12-20T09:12:03;7.80;97.50
7562;DHT22;3822;48.784;9.174;2023-12-20T09:14:33;7.70;97.70
7562;DHT22;3822;48.784;9.174;2023-12-20T09:20:58;7.60;97.40
7562;DHT22;3822;48.784;9.174;2023-12-20T09:24:13;8.50;97.80
7562;DHT22;3822;48.784;9.174;2023-12-20T09:27:27;10.30;98.30
7562;DHT22;3822;48.784;9.174;2023-12-20T09:30:23;7.80;97.60
7562;DHT22;3822;48.784;9.174;2023-12-20T09:32:55;10.40;98.10
7562;DHT22;3822;48.784;9.174;2023-12-20T09:35:37;6.10;96.40
7562;DHT22;3822;48.784;9.174;2023-12-20T09:38:06;7.00;96.90
7562;DHT22;3822;48.784;9.174;2023-12-20T09:40:46;7.70;96.80
7562;DHT22;3822;48.784;9.174;2023-12-20T09:43:19;7.70;96.60
7562;DHT22;3822;48.784;9.174;2023-12-20T09:45:54;8.80;96.80
7562;DHT22;3822;48.784;9.174;2023-12-20T09:48:53;6.40;95.40
7562;DHT22;3822;48.784;9.174;2023-12-20T09:51:23;7.60;95.60
7562;DHT22;3822;48.784;9.174;2023-12-20T09:53:59;9.00;96.00
7562;DHT22;3822;48.784;9.174;2023-12-20T09:56:30;7.90;95.80
7562;DHT22;3822;48.784;9.174;2023-12-20T09:59:08;5.70;94.60
7562;DHT22;3822;48.784;9.174;2023-12-20T10:01:39;6.50;94.50
7562;DHT22;3822;48.784;9.174;2023-12-20T10:04:17;8.00;95.10
7562;DHT22;3822;48.784;9.174;2023-12-20T10:06:48;7.80;95.20
7562;DHT22;3822;48.784;9.174;2023-12-20T10:09:28;8.00;94.90
7562;DHT22;3822;48.784;9.174;2023-12-20T10:12:19;10.90;95.50
7562;DHT22;3822;48.784;9.174;2023-12-20T10:15:32;8.00;94.80
7562;DHT22;3822;48.784;9.174;2023-12-20T10:18:25;8.00;94.50
7562;DHT22;3822;48.784;9.174;2023-12-20T10:21:11;8.20;94.40
7562;DHT22;3822;48.784;9.174;2023-12-20T10:23:56;8.10;94.10
7562;DHT22;3822;48.784;9.174;2023-12-20T10:26:33;10.00;94.20
7562;DHT22;3822;48.784;9.174;2023-12-20T10:29:20;10.60;94.30
7562;DHT22;3822;48.784;9.174;2023-12-20T10:31:53;11.40;94.50
7562;DHT22;3822;48.784;9.174;2023-12-20T10:34:56;9.70;94.40
7562;DHT22;3822;48.784;9.174;2023-12-20T10:37:36;8.20;93.40
7562;DHT22;3822;48.784;9.174;2023-12-20T10:40:23;5.50;92.70
7562;DHT22;3822;48.784;9.174;2023-12-20T10:43:04;8.10;93.60
7562;DHT22;3822;48.784;9.174;2023-12-20T10:46:04;8.20;93.50
7562;DHT22;3822;48.784;9.174;2023-12-20T10:48:43;8.10;93.60
7562;DHT22;3822;48.784;9.174;2023-12-20T10:51:34;6.50;93.00
7562;DHT22;3822;48.784;9.174;2023-12-20T10:54:04;8.70;94.10
7562;DHT22;3822;48.784;9.174;2023-12-20T10:56:32;7.40;93.60
7562;DHT22;3822;48.784;9.174;2023-12-20T10:59:02;8.10;93.90
7562;DHT22;3822;48.784;9.174;2023-12-20T11:01:34;8.20;94.10
7562;DHT22;3822;48.784;9.174;2023-12-20T11:04:20;7.30;93.60
7562;DHT22;3822;48.784;9.174;2023-12-20T11:14:25;8.00;93.30
7562;DHT22;3822;48.784;9.174;2023-12-20T11:17:18;7.90;93.30
7562;DHT22;3822;48.784;9.174;2023-12-20T11:20:22;7.00;92.80
7562;DHT22;3822;48.784;9.174;2023-12-20T11:23:08;6.50;92.80
7562;DHT22;3822;48.784;9.174;2023-12-20T11:25:57;8.00;93.20
7562;DHT22;3822;48.784;9.174;2023-12-20T11:28:35;8.00;93.30
7562;DHT22;3822;48.784;9.174;2023-12-20T11:31:26;5.60;92.30
7562;DHT22;3822;48.784;9.174;2023-12-20T11:34:15;8.20;93.10
7562;DHT22;3822;48.784;9.174;2023-12-20T11:37:13;7.90;93.20
7562;DHT22;3822;48.784;9.174;2023-12-20T11:39:56;7.60;93.30
7562;DHT22;3822;48.784;9.174;2023-12-20T11:42:49;7.90;92.90
7562;DHT22;3822;48.784;9.174;2023-12-20T11:45:23;7.90;92.70
7562;DHT22;3822;48.784;9.174;2023-12-20T11:48:14;6.00;91.50
7562;DHT22;3822;48.784;9.174;2023-12-20T11:51:32;9.40;93.10
7562;DHT22;3822;48.784;9.174;2023-12-20T11:54:34;7.80;92.20
7562;DHT22;3822;48.784;9.174;2023-12-20T11:57:36;7.80;92.10
7562;DHT22;3822;48.784;9.174;2023-12-20T12:00:26;7.80;92.10
7562;DHT22;3822;48.784;9.174;2023-12-20T12:03:42;10.50;93.10
7562;DHT22;3822;48.784;9.174;2023-12-20T12:06:32;7.90;92.30
7562;DHT22;3822;48.784;9.174;2023-12-20T12:09:01;8.80;92.50
7562;DHT22;3822;48.784;9.174;2023-12-20T12:11:44;7.80;92.00
7562;DHT22;3822;48.784;9.174;2023-12-20T12:14:18;7.80;92.00
7562;DHT22;3822;48.784;9.174;2023-12-20T12:16:48;9.30;92.70
7562;DHT22;3822;48.784;9.174;2023-12-20T12:19:44;7.30;92.10
7562;DHT22;3822;48.784;9.174;2023-12-20T12:22:23;7.80;92.20
7562;DHT22;3822;48.784;9.174;2023-12-20T12:25:14;7.80;92.50
7562;DHT22;3822;48.784;9.174;2023-12-20T12:27:44;7.90;92.10
7562;DHT22;3822;48.784;9.174;2023-12-20T12:30:29;10.60;92.80
7562;DHT22;3822;48.784;9.174;2023-12-20T12:33:11;7.90;92.50
7562;DHT22;3822;48.784;9.174;2023-12-20T12:35:48;8.00;92.30
7562;DHT22;3822;48.784;9.174;2023-12-20T12:38:20;8.10;92.50
7562;DHT22;3822;48.784;9.174;2023-12-20T12:41:12;8.10;92.40
7562;DHT22;3822;48.784;9.174;2023-12-20T12:44:11;8.10;92.00
7562;DHT22;3822;48.784;9.174;2023-12-20T12:46:52;8.10;91.80
7562;DHT22;3822;48.784;9.174;2023-12-20T12:49:29;8.40;91.70
7562;DHT22;3822;48.784;9.174;2023-12-20T12:55:36;8.10;91.50
7562;DHT22;3822;48.784;9.174;2023-12-20T12:58:22;8.30;91.90
7562;DHT22;3822;48.784;9.174;2023-12-20T13:01:07;7.30;91.20
7562;DHT22;3822;48.784;9.174;2023-12-20T13:03:58;8.30;91.60
7562;DHT22;3822;48.784;9.174;2023-12-20T13:06:48;8.40;91.40
7562;DHT22;3822;48.784;9.174;2023-12-20T13:09:39;8.60;91.70
7562;DHT22;3822;48.784;9.174;2023-12-20T13:12:51;8.40;91.20
7562;DHT22;3822;48.784;9.174;2023-12-20T13:19:40;8.90;91.40
7562;DHT22;3822;48.784;9.174;2023-12-20T13:22:18;11.40;92.00
7562;DHT22;3822;48.784;9.174;2023-12-20T13:24:46;8.40;91.40
7562;DHT22;3822;48.784;9.174;2023-12-20T13:27:59;8.40;91.20
7562;DHT22;3822;48.784;9.174;2023-12-20T13:30:51;8.30;91.60
7562;DHT22;3822;48.784;9.174;2023-12-20T13:37:03;6.90;90.40
7562;DHT22;3822;48.784;9.174;2023-12-20T13:39:33;8.40;91.10
7562;DHT22;3822;48.784;9.174;2023-12-20T13:42:28;8.60;91.10
7562;DHT22;3822;48.784;9.174;2023-12-20T13:45:21;9.60;91.80
7562;DHT22;3822;48.784;9.174;2023-12-20T13:48:01;8.70;91.40
7562;DHT22;3822;48.784;9.174;2023-12-20T13:51:07;8.50;91.10
7562;DHT22;3822;48.784;9.174;2023-12-20T13:53:57;8.00;90.60
7562;DHT22;3822;48.784;9.174;2023-12-20T13:57:18;8.60;90.90
7562;DHT22;3822;48.784;9.174;2023-12-20T13:59:56;7.20;90.30
7562;DHT22;3822;48.784;9.174;2023-12-20T14:02:56;8.50;90.60
7562;DHT22;3822;48.784;9.174;2023-12-20T14:05:32;8.40;91.20
7562;DHT22;3822;48.784;9.174;2023-12-20T14:08:36;9.30;91.10
7562;DHT22;3822;48.784;9.174;2023-12-20T14:11:19;8.40;91.10
7562;DHT22;3822;48.784;9.174;2023-12-20T14:14:11;8.40;91.00
7562;DHT22;3822;48.784;9.174;2023-12-20T14:17:01;8.40;91.00
7562;DHT22;3822;48.784;9.174;2023-12-20T14:20:50;6.90;90.40
7562;DHT22;3822;48.784;9.174;2023-12-20T14:27:48;7.00;90.70
7562;DHT22;3822;48.784;9.174;2023-12-20T14:34:46;7.00;90.90
7562;DHT22;3822;48.784;9.174;2023-12-20T14:38:44;8.20;91.60
7562;DHT22;3822;48.784;9.174;2023-12-20T14:42:27;9.90;92.40
7562;DHT22;3822;48.784;9.174;2023-12-20T14:45:42;8.20;92.10
7562;DHT22;3822;48.784;9.174;2023-12-20T14:48:34;9.90;93.20
7562;DHT22;3822;48.784;9.174;2023-12-20T14:51:12;8.30;92.40
7562;DHT22;3822;48.784;9.174;2023-12-20T14:53:41;8.00;93.00
7562;DHT22;3822;48.784;9.174;2023-12-20T14:56:35;8.00;92.70
7562;DHT22;3822;48.784;9.174;2023-12-20T14:59:24;8.20;92.80
7562;DHT22;3822;48.784;9.174;2023-12-20T15:02:58;8.20;93.10
7562;DHT22;3822;48.784;9.174;2023-12-20T15:06:02;8.00;92.90
7562;DHT22;3822;48.784;9.174;2023-12-20T15:08:51;5.80;92.10
7562;DHT22;3822;48.784;9.174;2023-12-20T15:11:47;7.90;93.30
7562;DHT22;3822;48.784;9.174;2023-12-20T15:15:08;5.80;92.20
7562;DHT22;3822;48.784;9.174;2023-12-20T15:25:18;7.80;93.30
7562;DHT22;3822;48.784;9.174;2023-12-20T15:27:49;6.20;92.70
7562;DHT22;3822;48.784;9.174;2023-12-20T15:30:32;9.50;94.10
7562;DHT22;3822;48.784;9.174;2023-12-20T15:33:21;7.70;93.70
7562;DHT22;3822;48.784;9.174;2023-12-20T15:40:46;7.80;93.70
7562;DHT22;3822;48.784;9.174;2023-12-20T15:43:38;6.30;93.20
7562;DHT22;3822;48.784;9.174;2023-12-20T15:46:54;7.70;94.10
7562;DHT22;3822;48.784;9.174;2023-12-20T15:53:36;5.60;93.10
7562;DHT22;3822;48.784;9.174;2023-12-20T15:56:37;7.60;94.10
7562;DHT22;3822;48.784;9.174;2023-12-20T15:59:13;5.20;93.20
7562;DHT22;3822;48.784;9.174;2023-12-20T16:01:42;5.20;93.70
7562;DHT22;3822;48.784;9.174;2023-12-20T16:04:39;9.90;95.50
7562;DHT22;3822;48.784;9.174;2023-12-20T16:08:22;6.80;94.00
7562;DHT22;3822;48.784;9.174;2023-12-20T16:11:48;7.80;94.50
7562;DHT22;3822;48.784;9.174;2023-12-20T16:14:26;8.10;94.60
7562;DHT22;3822;48.784;9.174;2023-12-20T16:21:26;7.00;94.20
7562;DHT22;3822;48.784;9.174;2023-12-20T16:31:21;6.20;94.00
7562;DHT22;3822;48.784;9.174;2023-12-20T16:39:47;7.70;94.80
7562;DHT22;3822;48.784;9.174;2023-12-20T16:42:41;5.80;94.30
7562;DHT22;3822;48.784;9.174;2023-12-20T16:45:48;7.60;94.80
7562;DHT22;3822;48.784;9.174;2023-12-20T16:49:14;9.90;95.80
7562;DHT22;3822;48.784;9.174;2023-12-20T16:52:11;7.50;95.10
7562;DHT22;3822;48.784;9.174;2023-12-20T16:55:16;7.60;95.10
7562;DHT22;3822;48.784;9.174;2023-12-20T16:58:35;7.60;94.90
7562;DHT22;3822;48.784;9.174;2023-12-20T17:02:42;7.70;95.50
7562;DHT22;3822;48.784;9.174;2023-12-20T17:14:55;5.40;94.50
7562;DHT22;3822;48.784;9.174;2023-12-20T17:20:41;7.30;95.40
7562;DHT22;3822;48.784;9.174;2023-12-20T17:44:49;7.20;95.50
7562;DHT22;3822;48.784;9.174;2023-12-20T18:06:46;4.50;94.70
7562;DHT22;3822;48.784;9.174;2023-12-20T18:09:51;5.40;95.10
7562;DHT22;3822;48.784;9.174;2023-12-20T18:20:07;7.10;95.70
7562;DHT22;3822;48.784;9.174;2023-12-20T18:46:58;5.50;94.90
7562;DHT22;3822;48.784;9.174;2023-12-20T18:50:04;5.00;94.90
7562;DHT22;3822;48.784;9.174;2023-12-20T19:03:14;7.00;95.60
7562;DHT22;3822;48.784;9.174;2023-12-20T19:09:38;7.10;95.70
7562;DHT22;3822;48.784;9.174;2023-12-20T19:15:03;7.10;95.50
7562;DHT22;3822;48.784;9.174;2023-12-20T19:24:38;7.10;95.50
7562;DHT22;3822;48.784;9.174;2023-12-20T19:53:33;7.10;95.60
7562;DHT22;3822;48.784;9.174;2023-12-20T19:56:39;7.20;96.10
7562;DHT22;3822;48.784;9.174;2023-12-20T19:59:05;9.90;97.20
7562;DHT22;3822;48.784;9.174;2023-12-20T20:01:31;5.70;95.50
7562;DHT22;3822;48.784;9.174;2023-12-20T20:04:00;8.60;96.40
7562;DHT22;3822;48.784;9.174;2023-12-20T20:06:27;8.70;96.40
7562;DHT22;3822;48.784;9.174;2023-12-20T20:08:54;7.00;96.00
7562;DHT22;3822;48.784;9.174;2023-12-20T20:11:27;7.00;95.70
7562;DHT22;3822;48.784;9.174;2023-12-20T20:13:53;7.00;95.80
7562;DHT22;3822;48.784;9.174;2023-12-20T20:16:22;7.00;95.80
7562;DHT22;3822;48.784;9.174;2023-12-20T20:18:50;7.10;95.80
7562;DHT22;3822;48.784;9.174;2023-12-20T20:21:16;7.00;95.80
7562;DHT22;3822;48.784;9.174;2023-12-20T20:23:45;7.00;95.80
7562;DHT22;3822;48.784;9.174;2023-12-20T20:26:12;7.00;95.90
7562;DHT22;3822;48.784;9.174;2023-12-20T20:28:38;7.00;95.90
7562;DHT22;3822;48.784;9.174;2023-12-20T20:31:09;6.90;96.00
7562;DHT22;3822;48.784;9.174;2023-12-20T20:33:35;7.00;96.00
7562;DHT22;3822;48.784;9.174;2023-12-20T20:36:02;6.90;96.00
7562;DHT22;3822;48.784;9.174;2023-12-20T20:38:33;6.90;96.10
7562;DHT22;3822;48.784;9.174;2023-12-20T20:40:59;6.90;96.10
7562;DHT22;3822;48.784;9.174;2023-12-20T20:43:30;6.90;96.20
7562;DHT22;3822;48.784;9.174;2023-12-20T20:46:05;6.90;96.20
7562;DHT22;3822;48.784;9.174;2023-12-20T20:48:37;8.80;97.00
7562;DHT22;3822;48.784;9.174;2023-12-20T20:51:08;6.90;96.20
7562;DHT22;3822;48.784;9.174;2023-12-20T20:53:37;6.90;96.40
7562;DHT22;3822;48.784;9.174;2023-12-20T20:56:05;7.80;96.60
7562;DHT22;3822;48.784;9.174;2023-12-20T20:58:35;6.90;96.30
7562;DHT22;3822;48.784;9.174;2023-12-20T21:01:02;5.60;96.10
7562;DHT22;3822;48.784;9.174;2023-12-20T21:03:33;6.80;97.00
7562;DHT22;3822;48.784;9.174;2023-12-20T21:06:01;5.90;95.90
7562;DHT22;3822;48.784;9.174;2023-12-20T21:09:07;6.80;96.90
7562;DHT22;3822;48.784;9.174;2023-12-20T21:11:52;6.90;96.30
7562;DHT22;3822;48.784;9.174;2023-12-20T21:14:29;6.10;96.00
7562;DHT22;3822;48.784;9.174;2023-12-20T21:16:57;8.00;97.60
7562;DHT22;3822;48.784;9.174;2023-12-20T21:19:35;6.10;95.90
7562;DHT22;3822;48.784;9.174;2023-12-20T21:22:01;5.90;96.20
7562;DHT22;3822;48.784;9.174;2023-12-20T21:24:51;7.10;96.70
7562;DHT22;3822;48.784;9.174;2023-12-20T21:27:27;9.90;97.30
7562;DHT22;3822;48.784;9.174;2023-12-20T21:30:05;7.20;96.20
7562;DHT22;3822;48.784;9.174;2023-12-20T21:32:45;7.00;96.40
7562;DHT22;3822;48.784;9.174;2023-12-20T21:35:14;7.00;96.00
7562;DHT22;3822;48.784;9.174;2023-12-20T21:37:48;4.50;95.40
7562;DHT22;3822;48.784;9.174;2023-12-20T21:40:32;7.00;97.00
7562;DHT22;3822;48.784;9.174;2023-12-20T21:43:00;7.00;96.00
7562;DHT22;3822;48.784;9.174;2023-12-20T21:45:39;7.00;96.60
7562;DHT22;3822;48.784;9.174;2023-12-20T21:48:15;7.00;96.40
7562;DHT22;3822;48.784;9.174;2023-12-20T21:54:09;4.50;94.90
7562;DHT22;3822;48.784;9.174;2023-12-20T21:56:48;6.90;96.60
7562;DHT22;3822;48.784;9.174;2023-12-20T21:59:17;7.00;97.10
7562;DHT22;3822;48.784;9.174;2023-12-20T22:02:03;4.60;95.40
7562;DHT22;3822;48.784;9.174;2023-12-20T22:04:34;8.20;96.70
7562;DHT22;3822;48.784;9.174;2023-12-20T22:07:06;6.10;95.90
7562;DHT22;3822;48.784;9.174;2023-12-20T22:09:38;7.00;96.20
7562;DHT22;3822;48.784;9.174;2023-12-20T22:12:09;4.50;95.00
7562;DHT22;3822;48.784;9.174;2023-12-20T22:15:09;6.40;96.10
7562;DHT22;3822;48.784;9.174;2023-12-20T22:17:40;5.60;95.40
7562;DHT22;3822;48.784;9.174;2023-12-20T22:20:12;9.80;97.40
7562;DHT22;3822;48.784;9.174;2023-12-20T22:22:53;5.90;95.90
7562;DHT22;3822;48.784;9.174;2023-12-20T22:28:16;4.40;95.00
7562;DHT22;3822;48.784;9.174;2023-12-20T22:30:57;5.60;95.80
7562;DHT22;3822;48.784;9.174;2023-12-20T22:36:25;5.00;95.30
7562;DHT22;3822;48.784;9.174;2023-12-20T22:38:53;8.00;97.70
7562;DHT22;3822;48.784;9.174;2023-12-20T22:41:31;7.30;97.00
7562;DHT22;3822;48.784;9.174;2023-12-20T22:44:21;6.50;96.30
7562;DHT22;3822;48.784;9.174;2023-12-20T22:46:52;6.20;95.90
7562;DHT22;3822;48.784;9.174;2023-12-20T22:49:35;7.10;97.20
7562;DHT22;3822;48.784;9.174;2023-12-20T22:52:34;6.50;96.50
7562;DHT22;3822;48.784;9.174;2023-12-20T22:59:03;5.70;95.90
7562;DHT22;3822;48.784;9.174;2023-12-20T23:05:12;6.00;96.10
7562;DHT22;3822;48.784;9.174;2023-12-20T23:11:11;4.80;95.70
7562;DHT22;3822;48.784;9.174;2023-12-20T23:13:56;7.10;97.20
7562;DHT22;3822;48.784;9.174;2023-12-20T23:18:49;7.10;96.60
7562;DHT22;3822;48.784;9.174;2023-12-20T23:28:05;5.50;95.90
7562;DHT22;3822;48.784;9.174;2023-12-20T23:30:39;7.90;97.40
7562;DHT22;3822;48.784;9.174;2023-12-20T23:33:24;7.90;97.10
7562;DHT22;3822;48.784;9.174;2023-12-20T23:36:27;7.30;96.80
7562;DHT22;3822;48.784;9.174;2023-12-20T23:42:21;6.30;96.00
7562;DHT22;3822;48.784;9.174;2023-12-20T23:48:16;6.40;96.00
7562;DHT22;3822;48.784;9.174;2023-12-20T23:50:50;9.70;98.00
7562;DHT22;3822;48.784;9.174;2023-12-20T23:53:26;7.80;97.20
7562;DHT22;3822;48.784;9.174;2023-12-20T23:56:03;10.10;97.30
